Time;durP1;ratioP1;P1;durP2;ratioP2;P2;SDS_P1;SDS_P2;PMS_P1;PMS_P2;Temp;Humidity;BMP_temperature;BMP_pressure;BME280_temperature;BME280_humidity;BME280_pressure;Samples;Min_cycle;Max_cycle;Signal;HPM_P1;HPM_P2
2022/05/28 00:07:49;;;;;;;6.68;1.63;;;;;;;10.10;69.22;100254.78;12174981;19;20013;-80
2022/05/28 00:11:51;;;;;;;8.20;2.33;;;;;;;10.02;70.02;100264.19;12209080;19;20084;-80
2022/05/28 00:15:53;;;;;;;7.57;2.00;;;;;;;9.95;70.67;100256.03;12178594;19;20029;-79
2022/05/28 00:19:55;;;;;;;9.45;3.45;;;;;;;9.90;71.06;100247.66;12208916;19;20003;-80
2022/05/28 00:23:57;;;;;;;7.97;1.83;;;;;;;9.82;72.04;100257.09;12200329;19;20043;-80
2022/05/28 00:27:59;;;;;;;10.55;2.55;;;;;;;9.76;72.57;100251.69;12193552;19;20027;-80
2022/05/28 00:32:01;;;;;;;11.13;2.25;;;;;;;9.68;73.14;100254.75;12206813;19;20089;-79
2022/05/28 00:36:08;;;;;;;10.32;1.65;;;;;;;9.61;74.15;100259.50;12211688;19;20094;-79
2022/05/28 00:40:18;;;;;;;8.95;1.70;;;;;;;9.52;74.40;100261.75;12179703;19;20006;-80
2022/05/28 00:44:19;;;;;;;7.53;1.83;;;;;;;9.44;74.86;100248.31;12212949;19;20010;-80
2022/05/28 00:48:26;;;;;;;5.65;2.08;;;;;;;9.35;75.00;100254.13;12202026;19;20078;-80
2022/05/28 00:52:28;;;;;;;8.18;1.98;;;;;;;9.32;74.54;100249.09;12181637;19;20010;-78
2022/05/28 00:56:29;;;;;;;6.20;1.90;;;;;;;9.21;74.24;100244.34;12198141;19;20003;-78
2022/05/28 01:00:33;;;;;;;6.57;1.85;;;;;;;9.08;74.57;100239.88;12199810;19;20047;-79
2022/05/28 01:05:01;;;;;;;10.18;1.90;;;;;;;8.97;75.03;100235.13;12209968;19;20024;-80
2022/05/28 01:09:33;;;;;;;8.43;3.50;;;;;;;8.90;75.88;100237.13;12207440;19;20034;-80
2022/05/28 01:13:38;;;;;;;13.48;1.80;;;;;;;8.92;75.32;100234.13;12180305;19;20038;-80
2022/05/28 01:17:55;;;;;;;10.75;2.20;;;;;;;8.93;75.91;100239.41;12209962;19;20015;-80
2022/05/28 01:22:26;;;;;;;7.95;2.00;;;;;;;8.93;77.15;100236.66;12188113;19;20030;-80
2022/05/28 01:26:38;;;;;;;5.70;1.77;;;;;;;8.90;77.23;100232.47;12206294;19;20056;-80
2022/05/28 01:30:43;;;;;;;4.05;1.52;;;;;;;8.86;77.44;100230.38;12178951;19;20003;-80
2022/05/28 01:34:45;;;;;;;7.85;1.80;;;;;;;8.83;77.87;100231.72;12205030;19;20018;-80
2022/05/28 01:38:49;;;;;;;3.33;1.25;;;;;;;8.81;77.72;100228.34;12206983;19;20131;-79
2022/05/28 01:42:55;;;;;;;10.60;1.90;;;;;;;8.75;77.84;100234.75;12181893;19;20062;-80
2022/05/28 01:46:57;;;;;;;10.30;1.73;;;;;;;8.67;78.11;100233.13;12202358;19;20352;-79
2022/05/28 01:51:02;;;;;;;7.40;1.80;;;;;;;8.62;79.28;100227.47;12229744;19;20015;-79
2022/05/28 01:55:06;;;;;;;11.63;2.15;;;;;;;8.57;81.53;100221.84;12221983;19;19998;-79
2022/05/28 01:59:11;;;;;;;5.63;2.17;;;;;;;8.51;81.66;100214.50;12226718;19;20539;-79
2022/05/28 02:03:13;;;;;;;6.95;1.77;;;;;;;8.50;81.02;100215.53;12204716;19;20019;-78
2022/05/28 02:07:17;;;;;;;10.75;2.50;;;;;;;8.46;81.06;100219.00;12174593;19;20010;-78
2022/05/28 02:11:23;;;;;;;5.38;1.48;;;;;;;8.40;82.29;100216.06;12203040;19;20002;-79
2022/05/28 02:15:48;;;;;;;7.25;1.60;;;;;;;8.39;83.48;100219.06;12206228;19;20025;-79
2022/05/28 02:19:59;;;;;;;2.25;1.20;;;;;;;8.37;82.76;100218.41;12177833;19;20039;-79
2022/05/28 02:24:29;;;;;;;8.75;2.17;;;;;;;8.36;82.76;100213.97;12206982;19;20021;-79
2022/05/28 02:28:33;;;;;;;7.93;1.50;;;;;;;8.30;82.54;100220.34;12179822;19;20018;-79
2022/05/28 02:32:34;;;;;;;10.85;1.80;;;;;;;8.22;82.38;100219.56;12208305;19;20011;-79
2022/05/28 02:36:37;;;;;;;6.28;1.42;;;;;;;8.20;83.38;100227.19;12183958;19;20121;-80
2022/05/28 02:40:38;;;;;;;4.73;1.30;;;;;;;8.20;82.59;100224.44;12195472;19;20014;-79
2022/05/28 02:44:40;;;;;;;5.13;1.48;;;;;;;8.18;82.83;100218.34;12208379;19;20087;-79
2022/05/28 02:48:42;;;;;;;5.05;1.23;;;;;;;8.13;83.42;100218.19;12184255;19;20483;-79
2022/05/28 02:52:43;;;;;;;6.32;1.70;;;;;;;8.11;84.09;100216.72;12210241;19;20050;-79
2022/05/28 02:56:46;;;;;;;6.30;1.25;;;;;;;8.10;83.21;100218.63;12206202;19;20046;-79
2022/05/28 03:00:47;;;;;;;5.68;1.27;;;;;;;8.10;83.03;100204.06;12192448;19;20464;-79
2022/05/28 03:04:49;;;;;;;8.57;1.42;;;;;;;8.09;82.97;100205.13;12203148;19;20007;-79
2022/05/28 03:08:51;;;;;;;7.07;1.42;;;;;;;8.08;82.89;100201.53;12208885;19;20074;-79
2022/05/28 03:12:53;;;;;;;9.48;1.80;;;;;;;8.09;82.80;100216.97;12181165;19;20913;-79
2022/05/28 03:16:55;;;;;;;6.03;1.77;;;;;;;8.08;82.87;100211.69;12208967;19;20015;-79
2022/05/28 03:20:56;;;;;;;5.18;1.52;;;;;;;8.07;82.74;100210.84;12200302;19;20006;-79
2022/05/28 03:24:58;;;;;;;8.77;1.45;;;;;;;8.04;82.80;100216.78;12189689;19;20042;-78
2022/05/28 03:29:00;;;;;;;8.88;1.83;;;;;;;8.03;82.69;100222.47;12209873;19;20042;-79
2022/05/28 03:33:02;;;;;;;6.77;1.40;;;;;;;8.01;83.30;100217.22;12204102;19;20026;-79
2022/05/28 03:37:04;;;;;;;11.05;1.52;;;;;;;7.99;83.90;100222.09;12179715;19;20014;-78
2022/05/28 03:41:06;;;;;;;10.13;2.50;;;;;;;7.97;84.01;100226.94;12197144;19;20016;-79
2022/05/28 03:45:08;;;;;;;6.07;1.75;;;;;;;7.99;84.31;100227.59;12203031;19;20009;-78
2022/05/28 03:49:28;;;;;;;4.78;1.23;;;;;;;8.00;84.57;100229.25;12178820;19;20398;-79
2022/05/28 03:53:30;;;;;;;3.88;1.60;;;;;;;8.03;83.62;100214.25;12192960;19;20019;-79
2022/05/28 03:57:33;;;;;;;4.00;1.45;;;;;;;8.08;83.48;100220.75;12201544;19;20060;-79
2022/05/28 04:01:35;;;;;;;10.32;1.70;;;;;;;8.10;83.59;100228.78;12207545;19;20019;-79
2022/05/28 04:05:38;;;;;;;3.50;1.07;;;;;;;8.14;83.74;100238.22;12205089;19;20372;-79
2022/05/28 04:09:39;;;;;;;6.30;1.40;;;;;;;8.20;83.15;100229.94;12190743;19;20078;-78
2022/05/28 04:13:41;;;;;;;8.23;1.80;;;;;;;8.25;83.11;100247.66;12206216;19;20030;-79
2022/05/28 04:17:43;;;;;;;6.30;1.45;;;;;;;8.29;83.33;100240.66;12194855;19;20415;-78
2022/05/28 04:21:44;;;;;;;7.70;2.08;;;;;;;8.34;83.28;100238.06;12188489;19;20025;-78
2022/05/28 04:25:46;;;;;;;3.47;1.88;;;;;;;8.36;83.51;100246.94;12204775;19;20480;-79
2022/05/28 04:29:48;;;;;;;9.75;1.90;;;;;;;8.39;84.08;100250.09;12198500;19;20015;-79
2022/05/28 04:33:50;;;;;;;6.05;1.60;;;;;;;8.44;84.04;100257.66;12176078;19;20532;-81
2022/05/28 04:37:51;;;;;;;6.68;1.65;;;;;;;8.47;83.76;100245.38;12206741;19;20070;-81
2022/05/28 04:41:53;;;;;;;5.57;1.42;;;;;;;8.49;84.03;100249.59;12195091;19;20033;-78
2022/05/28 04:45:55;;;;;;;5.45;1.63;;;;;;;8.50;84.07;100247.66;12173711;19;20015;-79
2022/05/28 04:49:56;;;;;;;7.43;2.35;;;;;;;8.53;84.20;100261.78;12198280;19;20009;-79
2022/05/28 04:53:58;;;;;;;7.03;1.88;;;;;;;8.54;84.49;100263.50;12194071;19;20033;-78
2022/05/28 04:58:00;;;;;;;5.72;1.38;;;;;;;8.58;84.29;100245.47;12167490;19;20066;-80
2022/05/28 05:02:01;;;;;;;8.45;1.75;;;;;;;8.65;84.27;100250.91;12199184;19;20077;-79
2022/05/28 05:06:03;;;;;;;4.78;1.50;;;;;;;8.75;84.15;100256.72;12185517;19;20062;-79
2022/05/28 05:10:05;;;;;;;8.32;1.90;;;;;;;8.84;84.21;100257.28;12178852;19;20695;-78
2022/05/28 05:14:07;;;;;;;8.60;1.83;;;;;;;8.93;83.35;100257.81;12191518;19;20006;-78
2022/05/28 05:18:09;;;;;;;7.47;1.48;;;;;;;9.02;82.74;100251.78;12194862;19;20030;-79
2022/05/28 05:22:10;;;;;;;7.20;1.50;;;;;;;9.13;81.91;100256.53;12178830;19;20003;-78
2022/05/28 05:26:14;;;;;;;4.97;1.85;;;;;;;9.25;81.87;100261.22;12204163;19;20544;-78
2022/05/28 05:30:18;;;;;;;4.35;1.35;;;;;;;9.36;80.61;100260.47;12200364;19;20476;-79
2022/05/28 05:34:20;;;;;;;;;;;;;;;9.51;80.35;100274.66;12169920;19;20551;-78
2022/05/28 05:38:23;;;;;;;7.07;1.38;;;;;;;9.77;79.32;100275.38;12204008;19;19911;-78
2022/05/28 05:42:25;;;;;;;4.93;1.40;;;;;;;10.06;78.61;100278.34;12199329;19;20017;-79
2022/05/28 05:46:26;;;;;;;10.70;1.60;;;;;;;10.35;77.06;100277.50;12174011;19;20926;-78
2022/05/28 05:50:28;;;;;;;5.30;1.58;;;;;;;10.75;74.95;100275.97;12193922;19;20027;-79
2022/05/28 05:54:31;;;;;;;8.57;1.90;;;;;;;11.22;73.95;100275.94;12199805;19;20014;-79
2022/05/28 05:58:34;;;;;;;5.57;1.80;;;;;;;11.62;72.34;100274.00;12169811;19;20014;-80
2022/05/28 06:02:36;;;;;;;6.85;2.72;;;;;;;11.92;70.09;100263.84;12193684;19;20014;-79
2022/05/28 06:06:38;;;;;;;8.77;1.42;;;;;;;12.06;68.65;100270.72;12175123;19;20500;-79
2022/05/28 06:10:40;;;;;;;8.27;2.30;;;;;;;12.26;68.84;100268.34;12203983;19;20097;-79
2022/05/28 06:14:42;;;;;;;9.05;2.35;;;;;;;12.64;68.12;100264.00;12194863;19;20244;-79
2022/05/28 06:18:44;;;;;;;12.48;1.90;;;;;;;13.13;67.81;100252.25;12177585;19;20007;-80
2022/05/28 06:22:45;;;;;;;7.00;1.47;;;;;;;13.23;66.72;100255.97;12207496;19;20014;-80
2022/05/28 06:26:47;;;;;;;9.00;2.03;;;;;;;13.12;65.96;100265.25;12210064;19;20034;-79
2022/05/28 06:30:51;;;;;;;8.30;1.95;;;;;;;12.94;65.23;100262.78;12177495;19;20011;-78
2022/05/28 06:34:54;;;;;;;7.07;1.42;;;;;;;12.68;65.22;100256.03;12201085;19;20011;-79
2022/05/28 06:38:56;;;;;;;6.97;2.50;;;;;;;12.48;66.24;100248.22;12193355;19;20007;-79
2022/05/28 06:42:57;;;;;;;9.50;1.88;;;;;;;12.43;66.35;100260.06;12177050;19;20011;-80
2022/05/28 06:46:59;;;;;;;5.20;1.63;;;;;;;12.49;66.41;100247.13;12198612;19;20495;-78
2022/05/28 06:51:01;;;;;;;9.60;1.95;;;;;;;12.57;66.52;100249.47;12193964;19;20006;-80
2022/05/28 06:55:04;;;;;;;8.10;1.80;;;;;;;12.60;65.98;100251.75;12176035;19;20082;-79
2022/05/28 06:59:06;;;;;;;10.20;2.08;;;;;;;12.75;66.06;100257.50;12193613;19;20027;-79
2022/05/28 07:03:15;;;;;;;7.00;1.50;;;;;;;12.94;66.06;100251.72;12188133;19;20045;-81
2022/05/28 07:07:17;;;;;;;10.27;3.53;;;;;;;13.05;64.40;100250.75;12175235;19;20031;-80
2022/05/28 07:11:18;;;;;;;5.10;1.60;;;;;;;13.26;64.71;100246.34;12189566;19;20018;-79
2022/05/28 07:15:20;;;;;;;7.45;1.48;;;;;;;13.50;63.28;100241.38;12183599;19;20042;-80
2022/05/28 07:19:22;;;;;;;7.82;2.10;;;;;;;13.77;62.93;100248.88;12168586;19;20030;-81
2022/05/28 07:23:26;;;;;;;11.43;2.22;;;;;;;13.85;62.90;100248.44;12203242;19;20011;-80
2022/05/28 07:27:29;;;;;;;5.20;1.73;;;;;;;14.09;62.46;100249.78;12206182;19;20015;-81
2022/05/28 07:31:31;;;;;;;11.10;2.28;;;;;;;14.52;61.07;100242.44;12190646;19;20087;-81
2022/05/28 07:35:33;;;;;;;4.90;2.03;;;;;;;15.25;59.59;100244.53;12204426;19;20011;-80
2022/05/28 07:39:34;;;;;;;8.82;1.33;;;;;;;15.38;57.22;100232.94;12191256;19;20010;-82
2022/05/28 07:43:36;;;;;;;6.13;1.90;;;;;;;15.47;58.04;100250.75;12206442;19;20010;-81
2022/05/28 07:47:38;;;;;;;5.88;1.88;;;;;;;15.35;57.87;100243.75;12209945;19;20047;-81
2022/05/28 07:51:40;;;;;;;5.95;1.75;;;;;;;15.10;56.99;100250.00;12192170;19;20002;-82
2022/05/28 07:55:42;;;;;;;10.02;1.90;;;;;;;15.00;57.27;100242.47;12218858;19;20006;-82
2022/05/28 07:59:43;;;;;;;11.63;1.95;;;;;;;14.80;57.42;100243.19;12218654;19;20010;-82
2022/05/28 08:03:45;;;;;;;8.38;1.90;;;;;;;14.89;58.10;100238.78;12186657;19;20010;-81
2022/05/28 08:07:47;;;;;;;6.20;2.05;;;;;;;15.07;57.18;100239.44;12215640;19;20480;-81
2022/05/28 08:11:48;;;;;;;8.00;1.20;;;;;;;15.02;56.64;100231.91;12213761;19;20070;-81
2022/05/28 08:15:53;;;;;;;6.60;1.88;;;;;;;14.94;57.40;100232.44;12185293;19;20010;-82
2022/05/28 08:19:55;;;;;;;5.97;1.40;;;;;;;14.94;57.07;100232.44;12199947;19;20035;-81
2022/05/28 08:23:57;;;;;;;7.43;1.45;;;;;;;14.82;57.46;100235.44;12215232;19;20011;-81
2022/05/28 08:27:58;;;;;;;6.20;1.55;;;;;;;15.02;56.59;100235.56;12197838;19;20067;-82
2022/05/28 08:32:00;;;;;;;8.93;1.70;;;;;;;15.34;56.59;100237.34;12214088;19;20606;-81
2022/05/28 08:36:02;;;;;;;6.55;1.40;;;;;;;15.64;55.57;100228.28;12213791;19;20009;-82
2022/05/28 08:40:05;;;;;;;8.73;1.67;;;;;;;16.09;53.11;100225.91;12191077;19;20006;-81
2022/05/28 08:44:18;;;;;;;2.83;1.35;;;;;;;16.64;50.07;100218.69;12206848;19;20030;-80
2022/05/28 08:48:26;;;;;;;8.40;1.20;;;;;;;16.45;51.10;100223.16;12216843;19;20352;-81
2022/05/28 08:52:33;;;;;;;2.30;1.02;;;;;;;16.40;51.35;100216.50;12186396;19;20015;-81
2022/05/28 08:56:38;;;;;;;6.80;1.30;;;;;;;16.14;52.01;100218.41;12210832;19;20006;-81
2022/05/28 09:00:41;;;;;;;8.10;2.17;;;;;;;16.02;51.88;100208.69;12189487;19;20042;-81
2022/05/28 09:04:45;;;;;;;5.40;1.30;;;;;;;16.58;51.38;100203.13;12211009;19;20021;-81
2022/05/28 09:08:54;;;;;;;3.35;1.05;;;;;;;17.12;49.09;100204.41;12207780;19;20114;-82
2022/05/28 09:13:07;;;;;;;5.57;1.90;;;;;;;17.52;47.60;100195.06;12189586;19;20006;-81
2022/05/28 09:17:09;;;;;;;;;;;;;;;17.98;46.82;100194.81;12207421;19;20821;-80
2022/05/28 09:21:15;;;;;;;3.30;1.35;;;;;;;18.07;45.05;100187.47;12191783;19;19947;-81
2022/05/28 09:25:22;;;;;;;6.75;0.90;;;;;;;17.74;44.44;100192.69;12185905;19;20070;-80
2022/05/28 09:29:46;;;;;;;3.80;1.00;;;;;;;17.47;45.57;100184.78;12196331;19;20074;-81
2022/05/28 09:33:58;;;;;;;15.88;2.38;;;;;;;17.42;45.60;100186.75;12172372;19;20098;-81
2022/05/28 09:38:09;;;;;;;6.53;1.30;;;;;;;17.40;46.43;100172.25;12199445;19;20034;-81
2022/05/28 09:42:20;;;;;;;5.40;1.35;;;;;;;17.69;45.89;100172.38;12200456;19;20011;-81
2022/05/28 09:46:39;;;;;;;4.38;1.00;;;;;;;17.79;44.88;100161.22;12182860;19;20011;-80
2022/05/28 09:50:42;;;;;;;3.22;1.00;;;;;;;18.02;43.18;100159.63;12198642;19;20003;-82
2022/05/28 09:54:44;;;;;;;4.53;1.05;;;;;;;18.02;42.99;100161.59;12168866;19;20016;-81
2022/05/28 09:58:46;;;;;;;2.33;0.95;;;;;;;18.06;42.33;100151.53;12193497;19;20010;-82
2022/05/28 10:07:14;;;;;;;5.30;1.98;;;;;;;18.39;41.60;100150.66;12168835;19;20015;-82
2022/05/28 10:11:22;;;;;;;3.28;1.00;;;;;;;18.69;40.25;100137.53;12205775;19;20068;-82
2022/05/28 10:15:33;;;;;;;5.85;1.50;;;;;;;18.46;40.53;100133.56;12197399;19;20471;-82
2022/05/28 10:19:43;;;;;;;;;;;;;;;18.45;41.52;100132.75;12166633;19;20011;-81
2022/05/28 10:23:55;;;;;;;2.05;0.80;;;;;;;18.64;41.16;100129.19;12201972;19;19945;-80
2022/05/28 10:27:57;;;;;;;3.40;1.10;;;;;;;18.22;41.69;100122.38;12168605;19;20014;-82
2022/05/28 10:32:00;;;;;;;3.45;1.15;;;;;;;18.12;43.04;100137.25;12205321;19;20007;-82
2022/05/28 10:36:10;;;;;;;10.02;1.65;;;;;;;18.09;43.01;100129.47;12198672;19;20074;-81
2022/05/28 10:40:15;;;;;;;4.53;1.40;;;;;;;17.62;44.39;100130.06;12173981;19;20606;-81
2022/05/28 10:44:19;;;;;;;6.13;1.38;;;;;;;17.46;45.27;100135.75;12194741;19;20040;-80
2022/05/28 10:48:58;;;;;;;6.88;1.38;;;;;;;16.63;52.54;100165.00;12193021;19;20010;-81
2022/05/28 10:53:24;;;;;;;5.20;1.55;;;;;;;15.10;60.21;100158.41;12167256;19;20462;-79
2022/05/28 10:57:45;;;;;;;5.32;1.83;;;;;;;14.69;63.13;100161.00;12196577;19;20542;-80
2022/05/28 11:02:05;;;;;;;4.88;1.67;;;;;;;15.72;62.92;100141.69;12175357;19;20055;-80
2022/05/28 11:06:41;;;;;;;3.80;1.40;;;;;;;16.14;58.74;100128.63;12193315;19;20122;-79
2022/05/28 11:11:13;;;;;;;3.97;1.42;;;;;;;16.79;55.86;100121.28;12189800;19;20097;-79
2022/05/28 11:15:29;;;;;;;5.72;1.38;;;;;;;17.36;53.04;100121.03;12199817;19;20138;-78
2022/05/28 11:19:44;;;;;;;5.95;1.60;;;;;;;18.13;51.12;100108.22;12178265;19;20025;-78
2022/05/28 11:23:52;;;;;;;4.13;1.85;;;;;;;18.82;49.51;100092.16;12199495;19;20105;-79
2022/05/28 11:28:03;;;;;;;2.42;1.10;;;;;;;19.10;46.30;100084.00;12183479;19;20014;-80
2022/05/28 11:32:16;;;;;;;7.85;1.48;;;;;;;18.54;45.02;100079.09;12209215;19;20032;-80
2022/05/28 11:36:30;;;;;;;5.13;1.23;;;;;;;19.40;45.23;100084.72;12203786;19;20074;-82
2022/05/28 11:40:43;;;;;;;3.22;1.27;;;;;;;20.35;41.14;100072.22;12187768;19;20010;-82
2022/05/28 11:44:52;;;;;;;4.55;1.67;;;;;;;21.52;38.31;100068.13;12208015;19;20023;-80
2022/05/28 11:53:47;;;;;;;8.77;1.00;;;;;;;19.69;38.34;100063.06;12209649;19;20002;-83
2022/05/28 11:58:00;;;;;;;4.47;1.23;;;;;;;19.33;38.86;100068.31;12192719;19;20078;-81
2022/05/28 12:02:10;;;;;;;3.65;1.10;;;;;;;19.06;38.51;100061.41;12214721;19;20011;-80
2022/05/28 12:06:36;;;;;;;1.60;0.80;;;;;;;18.34;39.01;100057.81;12204748;19;20039;-83
2022/05/28 12:10:44;;;;;;;4.00;1.10;;;;;;;18.42;39.49;100052.44;12196891;19;20015;-81
2022/05/28 12:15:00;;;;;;;2.00;1.25;;;;;;;18.31;38.89;100056.44;12203103;19;20055;-82
2022/05/28 12:19:22;;;;;;;6.57;0.98;;;;;;;20.32;38.15;100039.28;12186617;19;20118;-81
2022/05/28 12:23:34;;;;;;;4.47;0.85;;;;;;;20.94;36.20;100022.91;12213344;19;20010;-82
2022/05/28 12:27:40;;;;;;;2.08;0.90;;;;;;;20.27;36.09;100031.78;12189384;19;20010;-81
2022/05/28 12:31:42;;;;;;;6.43;1.55;;;;;;;19.57;36.77;100035.53;12206129;19;20854;-82
2022/05/28 12:35:56;;;;;;;4.00;1.23;;;;;;;19.15;38.21;100025.25;12214599;19;20018;-79
2022/05/28 12:40:22;;;;;;;7.13;1.27;;;;;;;19.20;38.58;100025.19;12187995;19;20495;-80
2022/05/28 12:44:26;;;;;;;3.92;1.15;;;;;;;20.16;37.38;100018.31;12197134;19;20019;-79
2022/05/28 12:48:31;;;;;;;2.97;1.23;;;;;;;21.75;33.39;100015.69;12213266;19;20028;-79
2022/05/28 12:52:44;;;;;;;2.40;0.77;;;;;;;23.97;31.48;99993.56;12183438;19;20010;-79
2022/05/28 12:56:45;;;;;;;4.30;0.90;;;;;;;25.91;28.28;99983.25;12206674;19;20019;-81
2022/05/28 13:00:52;;;;;;;1.00;0.73;;;;;;;24.59;28.97;99985.75;12173508;19;20003;-79
2022/05/28 13:05:12;;;;;;;1.90;0.77;;;;;;;22.12;30.20;99991.97;12199432;19;20271;-80
2022/05/28 13:09:15;;;;;;;1.83;0.90;;;;;;;22.17;32.56;99989.06;12210847;19;20042;-81
2022/05/28 13:13:41;;;;;;;1.48;0.63;;;;;;;24.09;28.92;99976.84;12185553;19;20085;-82
2022/05/28 13:18:21;;;;;;;5.50;1.20;;;;;;;26.02;26.68;99965.84;12189256;19;20010;-82
2022/05/28 13:22:31;;;;;;;;;;;;;;;27.52;24.83;99970.69;12198931;19;20014;-81
2022/05/28 13:27:05;;;;;;;3.67;0.95;;;;;;;28.05;23.22;99962.91;12206357;19;19914;-82
2022/05/28 13:31:13;;;;;;;5.25;1.25;;;;;;;26.20;23.98;99953.16;12178318;19;20852;-81
2022/05/28 13:35:18;;;;;;;1.50;0.90;;;;;;;25.31;26.29;99952.75;12193197;19;20034;-82
2022/05/28 13:39:24;;;;;;;2.22;1.02;;;;;;;26.96;24.81;99956.47;12197123;19;20426;-82
2022/05/28 13:43:32;;;;;;;4.38;1.52;;;;;;;28.31;23.37;99942.50;12177508;19;20025;-81
2022/05/28 13:47:38;;;;;;;3.00;1.23;;;;;;;29.26;22.19;99933.81;12204292;19;20006;-82
2022/05/28 13:51:48;;;;;;;3.42;1.30;;;;;;;26.94;22.98;99939.84;12175439;19;20346;-81
2022/05/28 13:55:57;;;;;;;6.28;1.38;;;;;;;26.64;24.01;99941.31;12204345;19;20078;-82
2022/05/28 13:59:58;;;;;;;3.15;1.00;;;;;;;27.53;22.00;99929.88;12190987;19;20011;-82
2022/05/28 14:04:21;;;;;;;3.30;1.00;;;;;;;29.15;21.33;99920.59;12175785;19;20017;-81
2022/05/28 14:08:38;;;;;;;3.85;1.10;;;;;;;28.50;20.99;99919.13;12194660;19;20142;-80
2022/05/28 14:12:47;;;;;;;2.53;1.02;;;;;;;25.62;23.97;99921.28;12180993;19;20011;-82
2022/05/28 14:17:04;;;;;;;3.33;2.08;;;;;;;25.00;24.20;99915.34;12202976;19;20018;-80
2022/05/28 14:21:12;;;;;;;1.77;0.85;;;;;;;27.30;22.66;99909.00;12186734;19;20041;-83
2022/05/28 14:25:31;;;;;;;3.10;1.08;;;;;;;28.80;21.05;99902.41;12178933;19;20491;-82
2022/05/28 14:29:38;;;;;;;4.18;1.92;;;;;;;30.17;19.47;99895.41;12204550;19;20017;-83
2022/05/28 14:33:44;;;;;;;3.35;1.30;;;;;;;30.84;18.55;99908.25;12190382;19;20353;-82
2022/05/28 14:38:08;;;;;;;5.87;1.63;;;;;;;30.84;18.29;99913.94;12199535;19;20021;-83
2022/05/28 14:42:18;;;;;;;3.28;1.02;;;;;;;30.61;18.09;99906.28;12209568;19;20011;-82
2022/05/28 14:46:27;;;;;;;3.33;1.10;;;;;;;28.37;19.60;99898.53;12193221;19;20037;-80
2022/05/28 14:50:34;;;;;;;3.80;0.90;;;;;;;27.30;20.78;99892.84;12210501;19;20341;-82
2022/05/28 14:54:49;;;;;;;4.57;1.20;;;;;;;25.60;21.95;99898.22;12190404;19;20022;-83
2022/05/28 14:58:58;;;;;;;2.97;1.10;;;;;;;25.53;22.38;99889.50;12210017;19;20034;-82
2022/05/28 15:03:26;;;;;;;2.42;0.90;;;;;;;25.78;22.30;99882.72;12209466;19;20029;-82
2022/05/28 15:07:31;;;;;;;2.75;0.93;;;;;;;27.01;21.58;99880.69;12197946;19;20374;-81
2022/05/28 15:11:35;;;;;;;2.95;1.10;;;;;;;28.39;20.25;99875.50;12216373;19;20338;-81
2022/05/28 15:15:37;;;;;;;4.00;1.10;;;;;;;28.85;20.07;99870.94;12184996;19;20091;-82
2022/05/28 15:19:39;;;;;;;3.75;1.20;;;;;;;28.41;20.18;99870.31;12215440;19;20027;-83
2022/05/28 15:23:41;;;;;;;2.60;0.80;;;;;;;26.92;21.06;99865.03;12214460;19;20078;-81
2022/05/28 15:27:43;;;;;;;4.93;1.33;;;;;;;25.22;22.53;99859.78;12192900;19;20011;-81
2022/05/28 15:31:44;;;;;;;2.47;1.05;;;;;;;23.57;24.77;99850.34;12213104;19;20010;-82
2022/05/28 15:40:07;;;;;;;1.58;0.70;;;;;;;21.43;26.32;99854.19;12180223;19;20006;-81
2022/05/28 15:44:11;;;;;;;3.03;0.90;;;;;;;20.75;27.51;99840.16;12191128;19;20078;-81
2022/05/28 15:48:14;;;;;;;2.83;0.80;;;;;;;20.68;27.52;99839.78;12205488;19;20030;-81
2022/05/28 15:52:15;;;;;;;3.83;0.82;;;;;;;20.50;27.71;99838.78;12184612;19;20078;-81
2022/05/28 15:56:17;;;;;;;2.33;0.80;;;;;;;20.04;27.71;99837.00;12194356;19;20019;-81
2022/05/28 16:00:20;;;;;;;4.60;0.70;;;;;;;19.88;27.85;99822.50;12209344;19;20082;-81
2022/05/28 16:04:26;;;;;;;3.58;0.82;;;;;;;19.82;27.75;99815.38;12177547;19;20014;-79
2022/05/28 16:12:37;;;;;;;3.53;0.88;;;;;;;19.51;28.83;99823.50;12189638;19;20390;-80
2022/05/28 16:16:39;;;;;;;4.15;0.80;;;;;;;19.33;28.97;99816.84;12212469;19;20095;-80
2022/05/28 16:20:41;;;;;;;2.42;1.15;;;;;;;19.03;29.23;99812.66;12205333;19;20010;-81
2022/05/28 16:24:42;;;;;;;1.90;0.82;;;;;;;18.98;29.03;99815.53;12192686;19;20126;-81
2022/05/28 16:28:46;;;;;;;3.55;0.90;;;;;;;18.94;29.05;99808.91;12209179;19;20026;-82
2022/05/28 16:32:49;;;;;;;2.08;0.70;;;;;;;18.81;29.03;99810.50;12215128;19;20082;-84
2022/05/28 16:36:51;;;;;;;2.00;0.77;;;;;;;18.65;28.67;99807.13;12181777;19;20047;-80
2022/05/28 16:40:53;;;;;;;4.15;0.90;;;;;;;18.37;28.88;99803.34;12213571;19;20394;-80
2022/05/28 16:44:55;;;;;;;3.72;0.73;;;;;;;18.27;28.95;99795.16;12206210;19;20010;-82
2022/05/28 16:48:57;;;;;;;1.47;0.87;;;;;;;18.20;28.04;99798.28;12190920;19;20011;-81
2022/05/28 16:53:01;;;;;;;4.53;0.80;;;;;;;18.09;27.21;99802.38;12208678;19;20023;-82
2022/05/28 16:57:06;;;;;;;1.90;0.93;;;;;;;18.01;27.62;99794.69;12205991;19;20003;-81
2022/05/28 17:01:08;;;;;;;3.20;0.90;;;;;;;17.98;27.70;99801.69;12177241;19;20066;-81
2022/05/28 17:05:12;;;;;;;2.72;0.63;;;;;;;17.91;27.49;99790.06;12208805;19;20007;-82
2022/05/28 17:09:14;;;;;;;1.52;0.63;;;;;;;17.93;28.03;99793.38;12212976;19;20022;-82
2022/05/28 17:13:20;;;;;;;4.55;0.80;;;;;;;17.95;28.01;99793.91;12187294;19;20337;-82
2022/05/28 17:17:22;;;;;;;2.72;1.10;;;;;;;17.89;28.18;99787.56;12200002;19;20030;-81
2022/05/28 17:21:35;;;;;;;3.13;0.90;;;;;;;17.79;28.90;99792.44;12208208;19;20006;-80
2022/05/28 17:25:37;;;;;;;2.40;0.80;;;;;;;17.83;29.12;99791.56;12191763;19;20457;-82
2022/05/28 17:29:39;;;;;;;1.88;0.77;;;;;;;17.85;28.78;99780.94;12208678;19;20066;-81
2022/05/28 17:33:41;;;;;;;3.88;0.88;;;;;;;17.81;29.31;99790.19;12183014;19;20032;-82
2022/05/28 17:37:47;;;;;;;1.70;0.90;;;;;;;17.69;29.16;99780.25;12197297;19;20078;-81
2022/05/28 17:41:50;;;;;;;3.22;0.68;;;;;;;17.68;29.26;99786.97;12205050;19;20010;-82
2022/05/28 17:45:51;;;;;;;2.80;0.90;;;;;;;17.60;29.37;99782.06;12175367;19;20090;-81
2022/05/28 17:49:53;;;;;;;2.90;0.85;;;;;;;17.51;30.10;99781.06;12197471;19;20003;-81
2022/05/28 17:53:55;;;;;;;4.43;1.00;;;;;;;17.49;30.32;99784.16;12203177;19;20078;-81
2022/05/28 17:57:57;;;;;;;4.72;0.98;;;;;;;17.44;30.74;99786.97;12176044;19;20014;-80
2022/05/28 18:02:13;;;;;;;2.10;0.90;;;;;;;17.38;31.32;99781.78;12193547;19;20528;-81
2022/05/28 18:06:19;;;;;;;2.90;0.90;;;;;;;17.28;31.56;99782.69;12184709;19;20098;-81
2022/05/28 18:10:21;;;;;;;1.90;0.90;;;;;;;17.16;31.64;99788.66;12173923;19;20006;-82
2022/05/28 18:14:24;;;;;;;1.85;0.93;;;;;;;17.04;31.86;99779.88;12192440;19;20026;-81
2022/05/28 18:18:38;;;;;;;5.88;1.40;;;;;;;17.02;32.09;99782.16;12198126;19;20376;-81
2022/05/28 18:22:56;;;;;;;5.88;1.13;;;;;;;16.98;32.12;99775.50;12173474;19;20038;-81
2022/05/28 18:26:58;;;;;;;3.13;1.08;;;;;;;16.83;32.18;99780.06;12203393;19;20073;-80
2022/05/28 18:31:00;;;;;;;5.57;1.37;;;;;;;16.64;32.42;99781.88;12175025;19;20011;-80
2022/05/28 18:35:02;;;;;;;3.80;1.30;;;;;;;16.48;32.79;99777.56;12203894;19;20007;-81
2022/05/28 18:39:09;;;;;;;3.30;0.85;;;;;;;16.35;33.34;99773.50;12201902;19;20100;-81
2022/05/28 18:43:11;;;;;;;4.28;1.20;;;;;;;16.19;33.81;99770.00;12169687;19;20013;-83
2022/05/28 18:47:13;;;;;;;4.43;1.05;;;;;;;16.03;33.62;99766.50;12200315;19;20006;-81
2022/05/28 18:51:17;;;;;;;8.73;2.88;;;;;;;15.88;33.85;99774.88;12198488;19;20472;-81
2022/05/28 18:55:20;;;;;;;4.47;1.02;;;;;;;15.77;33.55;99774.13;12177833;19;20352;-81
2022/05/28 18:59:24;;;;;;;6.70;1.25;;;;;;;15.63;33.88;99768.31;12195271;19;20032;-81
2022/05/28 19:03:30;;;;;;;4.72;1.63;;;;;;;15.47;34.18;99773.09;12196685;19;20010;-80
2022/05/28 19:07:33;;;;;;;4.40;1.40;;;;;;;15.34;34.45;99772.88;12183347;19;20014;-81
2022/05/28 19:11:59;;;;;;;4.05;1.33;;;;;;;15.20;34.55;99769.84;12198236;19;20003;-81
2022/05/28 19:16:32;;;;;;;4.40;1.63;;;;;;;14.98;35.61;99768.22;12178598;19;20402;-81
2022/05/28 19:20:34;;;;;;;;;;;;;;;14.76;36.33;99768.53;12194380;19;20011;-81
2022/05/28 19:24:36;;;;;;;7.43;1.50;;;;;;;14.59;36.51;99771.59;12177700;19;19928;-82